sensor_id;sensor_type;location;lat;lon;timestamp;pressure;altitude;pressure_sealevel;temperature;humidity
60258;BME280;46115;44.484;11.314;2023-09-08T00:03:45;100712.66;;;20.70;58.11
60258;BME280;46115;44.484;11.314;2023-09-08T00:07:47;100707.59;;;20.77;57.52
60258;BME280;46115;44.484;11.314;2023-09-08T00:11:50;100709.75;;;20.52;59.02
60258;BME280;46115;44.484;11.314;2023-09-08T00:15:54;100711.00;;;20.48;58.85
60258;BME280;46115;44.484;11.314;2023-09-08T00:19:57;100713.91;;;20.66;58.55
60258;BME280;46115;44.484;11.314;2023-09-08T00:24:00;100701.94;;;20.29;59.43
60258;BME280;46115;44.484;11.314;2023-09-08T00:28:03;100714.19;;;20.21;59.93
60258;BME280;46115;44.484;11.314;2023-09-08T00:32:09;100709.41;;;20.04;60.42
60258;BME280;46115;44.484;11.314;2023-09-08T00:36:12;100703.31;;;20.23;60.00
60258;BME280;46115;44.484;11.314;2023-09-08T00:40:14;100707.84;;;19.70;61.30
60258;BME280;46115;44.484;11.314;2023-09-08T00:44:17;100705.41;;;19.78;61.04
60258;BME280;46115;44.484;11.314;2023-09-08T00:48:23;100686.03;;;19.95;60.52
60258;BME280;46115;44.484;11.314;2023-09-08T00:52:25;100691.06;;;20.09;60.27
60258;BME280;46115;44.484;11.314;2023-09-08T00:56:33;100685.47;;;20.12;59.99
60258;BME280;46115;44.484;11.314;2023-09-08T01:00:35;100693.84;;;20.40;59.31
60258;BME280;46115;44.484;11.314;2023-09-08T01:04:39;100681.25;;;20.19;59.75
60258;BME280;46115;44.484;11.314;2023-09-08T01:08:43;100687.28;;;20.33;59.26
60258;BME280;46115;44.484;11.314;2023-09-08T01:12:46;100691.41;;;19.95;60.41
60258;BME280;46115;44.484;11.314;2023-09-08T01:16:48;100682.28;;;20.07;60.22
60258;BME280;46115;44.484;11.314;2023-09-08T01:21:11;100685.44;;;19.91;60.33
60258;BME280;46115;44.484;11.314;2023-09-08T01:25:21;100679.59;;;20.07;59.98
60258;BME280;46115;44.484;11.314;2023-09-08T01:29:23;100678.66;;;19.44;62.01
60258;BME280;46115;44.484;11.314;2023-09-08T01:33:29;100675.34;;;19.52;62.04
60258;BME280;46115;44.484;11.314;2023-09-08T01:37:32;100688.75;;;19.52;61.78
60258;BME280;46115;44.484;11.314;2023-09-08T01:41:36;100681.94;;;19.37;62.44
60258;BME280;46115;44.484;11.314;2023-09-08T01:45:38;100683.56;;;19.28;62.78
60258;BME280;46115;44.484;11.314;2023-09-08T01:49:41;100687.94;;;19.29;62.50
60258;BME280;46115;44.484;11.314;2023-09-08T01:53:43;100691.97;;;19.23;63.17
60258;BME280;46115;44.484;11.314;2023-09-08T01:57:47;100682.16;;;19.13;63.27
60258;BME280;46115;44.484;11.314;2023-09-08T02:01:52;100674.72;;;19.16;63.48
60258;BME280;46115;44.484;11.314;2023-09-08T02:05:54;100676.38;;;19.28;62.73
60258;BME280;46115;44.484;11.314;2023-09-08T02:09:57;100670.69;;;18.99;63.53
60258;BME280;46115;44.484;11.314;2023-09-08T02:14:01;100682.88;;;19.15;63.44
60258;BME280;46115;44.484;11.314;2023-09-08T02:18:04;100684.84;;;19.13;63.81
60258;BME280;46115;44.484;11.314;2023-09-08T02:22:06;100677.91;;;18.88;64.49
60258;BME280;46115;44.484;11.314;2023-09-08T02:26:09;100683.28;;;18.77;64.76
60258;BME280;46115;44.484;11.314;2023-09-08T02:30:13;100684.75;;;18.81;64.79
60258;BME280;46115;44.484;11.314;2023-09-08T02:34:17;100694.97;;;18.87;64.42
60258;BME280;46115;44.484;11.314;2023-09-08T02:38:20;100683.63;;;18.94;64.32
60258;BME280;46115;44.484;11.314;2023-09-08T02:42:22;100688.63;;;18.88;64.55
60258;BME280;46115;44.484;11.314;2023-09-08T02:46:26;100682.66;;;18.73;64.97
60258;BME280;46115;44.484;11.314;2023-09-08T02:50:29;100693.97;;;19.10;63.80
60258;BME280;46115;44.484;11.314;2023-09-08T02:54:32;100688.00;;;18.95;64.12
60258;BME280;46115;44.484;11.314;2023-09-08T02:58:34;100691.03;;;19.13;63.59
60258;BME280;46115;44.484;11.314;2023-09-08T03:02:39;100691.69;;;18.83;64.44
60258;BME280;46115;44.484;11.314;2023-09-08T03:06:41;100689.13;;;18.82;64.85
60258;BME280;46115;44.484;11.314;2023-09-08T03:10:44;100680.06;;;18.60;65.50
60258;BME280;46115;44.484;11.314;2023-09-08T03:14:47;100679.59;;;18.55;65.63
60258;BME280;46115;44.484;11.314;2023-09-08T03:18:51;100688.22;;;18.48;65.89
60258;BME280;46115;44.484;11.314;2023-09-08T03:22:53;100680.19;;;18.59;65.48
60258;BME280;46115;44.484;11.314;2023-09-08T03:26:56;100674.72;;;18.60;65.53
60258;BME280;46115;44.484;11.314;2023-09-08T03:30:59;100673.59;;;18.29;66.76
60258;BME280;46115;44.484;11.314;2023-09-08T03:35:03;100669.63;;;18.46;66.07
60258;BME280;46115;44.484;11.314;2023-09-08T03:39:08;100676.25;;;18.29;66.30
60258;BME280;46115;44.484;11.314;2023-09-08T03:43:12;100671.31;;;18.47;65.81
60258;BME280;46115;44.484;11.314;2023-09-08T03:47:15;100672.78;;;18.40;65.92
60258;BME280;46115;44.484;11.314;2023-09-08T03:51:19;100670.47;;;18.58;65.07
60258;BME280;46115;44.484;11.314;2023-09-08T03:55:21;100668.41;;;18.50;65.48
60258;BME280;46115;44.484;11.314;2023-09-08T03:59:24;100667.91;;;18.56;65.48
60258;BME280;46115;44.484;11.314;2023-09-08T04:03:26;100662.38;;;18.13;67.15
60258;BME280;46115;44.484;11.314;2023-09-08T04:07:30;100654.53;;;18.45;65.80
60258;BME280;46115;44.484;11.314;2023-09-08T04:11:33;100660.72;;;18.46;65.89
60258;BME280;46115;44.484;11.314;2023-09-08T04:15:35;100664.03;;;18.72;65.08
60258;BME280;46115;44.484;11.314;2023-09-08T04:19:38;100654.53;;;18.45;65.73
60258;BME280;46115;44.484;11.314;2023-09-08T04:23:44;100661.78;;;18.10;67.10
60258;BME280;46115;44.484;11.314;2023-09-08T04:27:47;100664.56;;;18.08;67.62
60258;BME280;46115;44.484;11.314;2023-09-08T04:31:50;100666.72;;;18.03;67.80
60258;BME280;46115;44.484;11.314;2023-09-08T04:35:53;100659.75;;;17.89;68.11
60258;BME280;46115;44.484;11.314;2023-09-08T04:39:57;100660.50;;;17.91;67.93
60258;BME280;46115;44.484;11.314;2023-09-08T04:44:00;100675.44;;;17.83;68.28
60258;BME280;46115;44.484;11.314;2023-09-08T04:48:03;100669.75;;;17.98;68.28
60258;BME280;46115;44.484;11.314;2023-09-08T04:52:06;100674.75;;;18.03;67.63
60258;BME280;46115;44.484;11.314;2023-09-08T04:56:11;100684.16;;;18.20;67.19
60258;BME280;46115;44.484;11.314;2023-09-08T05:00:15;100685.00;;;18.20;67.15
60258;BME280;46115;44.484;11.314;2023-09-08T05:04:19;100683.31;;;18.19;67.14
60258;BME280;46115;44.484;11.314;2023-09-08T05:08:21;100683.56;;;18.27;66.81
60258;BME280;46115;44.484;11.314;2023-09-08T05:12:26;100687.22;;;18.26;67.01
60258;BME280;46115;44.484;11.314;2023-09-08T05:16:28;100697.56;;;18.31;66.95
60258;BME280;46115;44.484;11.314;2023-09-08T05:20:42;100705.91;;;18.15;67.27
60258;BME280;46115;44.484;11.314;2023-09-08T05:24:45;100696.31;;;18.24;67.42
60258;BME280;46115;44.484;11.314;2023-09-08T05:28:50;100701.56;;;18.25;67.26
60258;BME280;46115;44.484;11.314;2023-09-08T05:32:53;100706.72;;;18.39;67.15
60258;BME280;46115;44.484;11.314;2023-09-08T05:36:56;100710.50;;;18.59;66.73
60258;BME280;46115;44.484;11.314;2023-09-08T05:40:58;100708.66;;;18.60;66.29
60258;BME280;46115;44.484;11.314;2023-09-08T05:45:03;100714.31;;;18.79;66.19
60258;BME280;46115;44.484;11.314;2023-09-08T05:49:05;100724.06;;;18.91;65.47
60258;BME280;46115;44.484;11.314;2023-09-08T05:53:08;100723.78;;;19.17;64.87
60258;BME280;46115;44.484;11.314;2023-09-08T05:57:11;100724.91;;;19.14;65.14
60258;BME280;46115;44.484;11.314;2023-09-08T06:01:15;100725.56;;;19.39;64.37
60258;BME280;46115;44.484;11.314;2023-09-08T06:05:18;100718.69;;;19.79;62.97
60258;BME280;46115;44.484;11.314;2023-09-08T06:09:21;100725.38;;;20.06;62.45
60258;BME280;46115;44.484;11.314;2023-09-08T06:13:23;100728.00;;;20.17;62.11
60258;BME280;46115;44.484;11.314;2023-09-08T06:17:28;100723.91;;;20.54;61.17
60258;BME280;46115;44.484;11.314;2023-09-08T06:21:31;100725.50;;;20.97;60.01
60258;BME280;46115;44.484;11.314;2023-09-08T06:25:34;100723.28;;;21.12;59.50
60258;BME280;46115;44.484;11.314;2023-09-08T06:29:36;100732.47;;;21.49;58.60
60258;BME280;46115;44.484;11.314;2023-09-08T06:33:41;100729.69;;;21.70;58.38
60258;BME280;46115;44.484;11.314;2023-09-08T06:37:45;100726.31;;;22.17;57.63
60258;BME280;46115;44.484;11.314;2023-09-08T06:41:47;100730.69;;;21.98;57.93
60258;BME280;46115;44.484;11.314;2023-09-08T06:45:52;100728.31;;;22.24;57.29
60258;BME280;46115;44.484;11.314;2023-09-08T06:49:58;100733.50;;;23.01;56.26
60258;BME280;46115;44.484;11.314;2023-09-08T06:54:01;100740.22;;;23.88;54.08
60258;BME280;46115;44.484;11.314;2023-09-08T06:58:10;100737.19;;;23.55;53.96
60258;BME280;46115;44.484;11.314;2023-09-08T07:02:16;100737.44;;;23.80;52.98
60258;BME280;46115;44.484;11.314;2023-09-08T07:06:20;100737.59;;;23.78;53.53
60258;BME280;46115;44.484;11.314;2023-09-08T07:10:23;100734.34;;;24.10;52.51
60258;BME280;46115;44.484;11.314;2023-09-08T07:14:26;100727.50;;;24.34;52.42
60258;BME280;46115;44.484;11.314;2023-09-08T07:18:29;100711.88;;;24.79;51.58
60258;BME280;46115;44.484;11.314;2023-09-08T07:22:35;100734.78;;;25.27;50.95
60258;BME280;46115;44.484;11.314;2023-09-08T07:26:38;100733.34;;;25.57;50.32
60258;BME280;46115;44.484;11.314;2023-09-08T07:30:40;100734.81;;;26.18;49.17
60258;BME280;46115;44.484;11.314;2023-09-08T07:34:43;100745.81;;;27.21;46.73
60258;BME280;46115;44.484;11.314;2023-09-08T07:38:47;100745.16;;;27.19;46.93
60258;BME280;46115;44.484;11.314;2023-09-08T07:42:50;100750.84;;;27.71;45.77
60258;BME280;46115;44.484;11.314;2023-09-08T07:46:53;100753.81;;;28.07;44.74
60258;BME280;46115;44.484;11.314;2023-09-08T07:50:57;100753.88;;;28.45;44.46
60258;BME280;46115;44.484;11.314;2023-09-08T07:55:03;100752.00;;;28.22;44.35
60258;BME280;46115;44.484;11.314;2023-09-08T07:59:05;100753.94;;;29.04;43.55
60258;BME280;46115;44.484;11.314;2023-09-08T08:03:07;100748.38;;;28.68;43.10
60258;BME280;46115;44.484;11.314;2023-09-08T08:07:10;100760.13;;;28.83;43.08
60258;BME280;46115;44.484;11.314;2023-09-08T08:11:15;100744.81;;;28.67;43.65
60258;BME280;46115;44.484;11.314;2023-09-08T08:15:20;100757.03;;;29.30;42.88
60258;BME280;46115;44.484;11.314;2023-09-08T08:19:22;100758.56;;;30.05;40.91
60258;BME280;46115;44.484;11.314;2023-09-08T08:23:25;100755.38;;;30.51;40.22
60258;BME280;46115;44.484;11.314;2023-09-08T08:27:28;100750.00;;;30.57;40.45
60258;BME280;46115;44.484;11.314;2023-09-08T08:31:32;100738.84;;;30.03;40.19
60258;BME280;46115;44.484;11.314;2023-09-08T08:35:34;100743.66;;;31.13;39.05
60258;BME280;46115;44.484;11.314;2023-09-08T08:39:37;100740.25;;;31.45;38.76
60258;BME280;46115;44.484;11.314;2023-09-08T08:43:41;100732.28;;;31.09;39.20
60258;BME280;46115;44.484;11.314;2023-09-08T08:47:45;100745.56;;;31.60;38.31
60258;BME280;46115;44.484;11.314;2023-09-08T08:51:50;100731.63;;;31.42;38.81
60258;BME280;46115;44.484;11.314;2023-09-08T08:55:55;100745.50;;;32.47;37.23
60258;BME280;46115;44.484;11.314;2023-09-08T09:00:00;100740.66;;;32.49;36.56
60258;BME280;46115;44.484;11.314;2023-09-08T09:04:05;100716.84;;;32.17;36.54
60258;BME280;46115;44.484;11.314;2023-09-08T09:08:07;100736.66;;;32.45;36.58
60258;BME280;46115;44.484;11.314;2023-09-08T09:12:11;100735.13;;;32.96;35.34
60258;BME280;46115;44.484;11.314;2023-09-08T09:16:15;100729.78;;;33.34;33.98
60258;BME280;46115;44.484;11.314;2023-09-08T09:20:19;100731.59;;;32.55;36.18
60258;BME280;46115;44.484;11.314;2023-09-08T09:24:29;100731.53;;;32.95;35.03
60258;BME280;46115;44.484;11.314;2023-09-08T09:28:32;100733.25;;;32.90;34.49
60258;BME280;46115;44.484;11.314;2023-09-08T09:32:36;100722.97;;;32.78;35.04
60258;BME280;46115;44.484;11.314;2023-09-08T09:36:39;100721.66;;;32.87;35.42
60258;BME280;46115;44.484;11.314;2023-09-08T09:40:47;100726.97;;;32.69;34.55
60258;BME280;46115;44.484;11.314;2023-09-08T09:44:51;100720.00;;;32.14;36.07
60258;BME280;46115;44.484;11.314;2023-09-08T09:48:55;100706.72;;;31.78;36.37
60258;BME280;46115;44.484;11.314;2023-09-08T09:52:59;100715.00;;;32.37;33.73
60258;BME280;46115;44.484;11.314;2023-09-08T09:57:03;100688.47;;;31.98;34.14
60258;BME280;46115;44.484;11.314;2023-09-08T10:01:05;100698.63;;;30.95;36.30
60258;BME280;46115;44.484;11.314;2023-09-08T10:05:13;100697.97;;;31.34;35.48
60258;BME280;46115;44.484;11.314;2023-09-08T10:09:16;100702.06;;;31.58;35.61
60258;BME280;46115;44.484;11.314;2023-09-08T10:13:25;100701.44;;;31.63;35.43
60258;BME280;46115;44.484;11.314;2023-09-08T10:17:30;100696.75;;;31.44;35.63
60258;BME280;46115;44.484;11.314;2023-09-08T10:21:36;100683.38;;;30.45;36.92
60258;BME280;46115;44.484;11.314;2023-09-08T10:25:43;100693.53;;;30.86;37.09
60258;BME280;46115;44.484;11.314;2023-09-08T10:29:47;100684.69;;;30.84;35.96
60258;BME280;46115;44.484;11.314;2023-09-08T10:33:51;100681.25;;;30.13;36.78
60258;BME280;46115;44.484;11.314;2023-09-08T10:38:21;100671.13;;;29.64;37.11
60258;BME280;46115;44.484;11.314;2023-09-08T10:42:25;100679.81;;;30.45;36.53
60258;BME280;46115;44.484;11.314;2023-09-08T10:46:31;100654.63;;;30.15;37.23
60258;BME280;46115;44.484;11.314;2023-09-08T10:50:35;100685.03;;;30.39;36.45
60258;BME280;46115;44.484;11.314;2023-09-08T10:54:43;100665.41;;;28.86;39.05
60258;BME280;46115;44.484;11.314;2023-09-08T10:58:49;100663.56;;;29.59;38.38
60258;BME280;46115;44.484;11.314;2023-09-08T11:02:53;100650.63;;;29.89;37.53
60258;BME280;46115;44.484;11.314;2023-09-08T11:06:56;100662.28;;;29.83;37.85
60258;BME280;46115;44.484;11.314;2023-09-08T11:11:00;100650.50;;;29.76;37.11
60258;BME280;46115;44.484;11.314;2023-09-08T11:15:05;100660.31;;;29.70;37.94
60258;BME280;46115;44.484;11.314;2023-09-08T11:19:09;100657.00;;;29.75;37.86
60258;BME280;46115;44.484;11.314;2023-09-08T11:23:11;100655.69;;;29.71;37.24
60258;BME280;46115;44.484;11.314;2023-09-08T11:27:15;100640.34;;;29.63;37.78
60258;BME280;46115;44.484;11.314;2023-09-08T11:31:18;100647.94;;;29.32;38.62
60258;BME280;46115;44.484;11.314;2023-09-08T11:35:20;100638.53;;;28.98;38.67
60258;BME280;46115;44.484;11.314;2023-09-08T11:39:23;100640.38;;;29.48;38.76
60258;BME280;46115;44.484;11.314;2023-09-08T11:43:27;100635.81;;;29.49;37.22
60258;BME280;46115;44.484;11.314;2023-09-08T11:47:34;100632.56;;;29.24;37.70
60258;BME280;46115;44.484;11.314;2023-09-08T11:51:36;100627.19;;;29.31;38.33
60258;BME280;46115;44.484;11.314;2023-09-08T11:55:39;100630.38;;;29.34;38.05
60258;BME280;46115;44.484;11.314;2023-09-08T11:59:43;100621.94;;;29.29;38.86
60258;BME280;46115;44.484;11.314;2023-09-08T12:03:52;100618.81;;;28.22;40.03
60258;BME280;46115;44.484;11.314;2023-09-08T12:07:56;100611.06;;;28.64;40.06
60258;BME280;46115;44.484;11.314;2023-09-08T12:12:03;100604.44;;;29.17;38.18
60258;BME280;46115;44.484;11.314;2023-09-08T12:16:18;100601.59;;;28.89;39.13
60258;BME280;46115;44.484;11.314;2023-09-08T12:20:21;100597.50;;;29.14;39.04
60258;BME280;46115;44.484;11.314;2023-09-08T12:24:48;100592.94;;;29.43;38.33
60258;BME280;46115;44.484;11.314;2023-09-08T12:28:51;100594.97;;;29.34;39.14
60258;BME280;46115;44.484;11.314;2023-09-08T12:32:56;100580.84;;;29.24;38.87
60258;BME280;46115;44.484;11.314;2023-09-08T12:36:59;100569.75;;;29.26;38.90
60258;BME280;46115;44.484;11.314;2023-09-08T12:41:01;100579.66;;;29.33;38.76
60258;BME280;46115;44.484;11.314;2023-09-08T12:45:05;100583.88;;;29.51;38.98
60258;BME280;46115;44.484;11.314;2023-09-08T12:49:28;100578.47;;;29.57;38.14
60258;BME280;46115;44.484;11.314;2023-09-08T12:53:33;100553.13;;;28.99;38.01
60258;BME280;46115;44.484;11.314;2023-09-08T12:57:36;100562.88;;;28.57;38.06
60258;BME280;46115;44.484;11.314;2023-09-08T13:01:39;100550.91;;;28.73;37.69
60258;BME280;46115;44.484;11.314;2023-09-08T13:05:43;100546.53;;;29.08;39.08
60258;BME280;46115;44.484;11.314;2023-09-08T13:09:45;100546.00;;;29.41;38.69
60258;BME280;46115;44.484;11.314;2023-09-08T13:13:48;100552.31;;;29.41;38.17
60258;BME280;46115;44.484;11.314;2023-09-08T13:17:50;100543.81;;;29.30;38.35
60258;BME280;46115;44.484;11.314;2023-09-08T13:21:54;100544.13;;;29.41;37.65
60258;BME280;46115;44.484;11.314;2023-09-08T13:25:56;100537.41;;;29.16;37.24
60258;BME280;46115;44.484;11.314;2023-09-08T13:30:08;100531.91;;;29.52;37.50
60258;BME280;46115;44.484;11.314;2023-09-08T13:34:10;100524.03;;;29.64;37.53
60258;BME280;46115;44.484;11.314;2023-09-08T13:38:14;100523.78;;;29.37;37.93
60258;BME280;46115;44.484;11.314;2023-09-08T13:42:17;100514.56;;;29.38;37.84
60258;BME280;46115;44.484;11.314;2023-09-08T13:46:19;100501.69;;;29.47;37.50
60258;BME280;46115;44.484;11.314;2023-09-08T13:50:22;100509.00;;;29.46;37.59
60258;BME280;46115;44.484;11.314;2023-09-08T13:54:26;100502.34;;;29.49;37.18
60258;BME280;46115;44.484;11.314;2023-09-08T13:58:28;100498.25;;;29.60;36.83
60258;BME280;46115;44.484;11.314;2023-09-08T14:02:31;100504.69;;;29.52;37.09
60258;BME280;46115;44.484;11.314;2023-09-08T14:06:33;100502.59;;;29.54;37.01
60258;BME280;46115;44.484;11.314;2023-09-08T14:10:37;100499.69;;;29.56;36.83
60258;BME280;46115;44.484;11.314;2023-09-08T14:14:40;100494.69;;;29.59;35.69
60258;BME280;46115;44.484;11.314;2023-09-08T14:18:42;100480.81;;;29.54;36.10
60258;BME280;46115;44.484;11.314;2023-09-08T14:22:45;100479.66;;;29.70;35.82
60258;BME280;46115;44.484;11.314;2023-09-08T14:26:49;100473.41;;;29.48;36.70
60258;BME280;46115;44.484;11.314;2023-09-08T14:30:52;100439.78;;;29.34;36.75
60258;BME280;46115;44.484;11.314;2023-09-08T14:34:55;100446.38;;;29.46;36.79
60258;BME280;46115;44.484;11.314;2023-09-08T14:38:58;100468.91;;;29.62;36.48
60258;BME280;46115;44.484;11.314;2023-09-08T14:43:01;100467.69;;;29.64;36.75
60258;BME280;46115;44.484;11.314;2023-09-08T17:00:38;100434.88;;;28.80;38.39
60258;BME280;46115;44.484;11.314;2023-09-08T17:04:40;100429.00;;;28.98;37.54
60258;BME280;46115;44.484;11.314;2023-09-08T17:08:45;100426.22;;;28.92;37.90
60258;BME280;46115;44.484;11.314;2023-09-08T17:12:48;100433.50;;;28.84;38.16
60258;BME280;46115;44.484;11.314;2023-09-08T17:16:52;100435.31;;;28.63;38.76
60258;BME280;46115;44.484;11.314;2023-09-08T17:20:55;100432.03;;;28.31;40.72
60258;BME280;46115;44.484;11.314;2023-09-08T17:24:57;100434.13;;;27.70;42.18
60258;BME280;46115;44.484;11.314;2023-09-08T17:29:00;100437.31;;;27.88;41.45
60258;BME280;46115;44.484;11.314;2023-09-08T17:33:04;100437.09;;;28.05;41.32
60258;BME280;46115;44.484;11.314;2023-09-08T17:37:07;100433.38;;;27.76;42.46
60258;BME280;46115;44.484;11.314;2023-09-08T17:41:09;100440.38;;;27.71;43.17
60258;BME280;46115;44.484;11.314;2023-09-08T17:45:12;100441.28;;;27.48;42.55
60258;BME280;46115;44.484;11.314;2023-09-08T17:49:15;100448.44;;;27.64;42.84
60258;BME280;46115;44.484;11.314;2023-09-08T17:53:18;100455.09;;;27.61;42.75
60258;BME280;46115;44.484;11.314;2023-09-08T17:57:20;100460.72;;;27.37;44.19
60258;BME280;46115;44.484;11.314;2023-09-08T18:01:23;100456.72;;;26.87;44.74
60258;BME280;46115;44.484;11.314;2023-09-08T18:05:27;100472.94;;;27.18;44.24
60258;BME280;46115;44.484;11.314;2023-09-08T18:09:29;100474.28;;;27.37;43.24
60258;BME280;46115;44.484;11.314;2023-09-08T18:13:32;100480.34;;;27.01;43.78
60258;BME280;46115;44.484;11.314;2023-09-08T18:17:35;100487.53;;;26.63;45.27
60258;BME280;46115;44.484;11.314;2023-09-08T22:06:08;100537.88;;;21.97;59.31
60258;BME280;46115;44.484;11.314;2023-09-08T22:10:11;100538.59;;;21.99;59.11
60258;BME280;46115;44.484;11.314;2023-09-08T22:14:14;100539.72;;;22.06;59.04
60258;BME280;46115;44.484;11.314;2023-09-08T22:18:16;100537.88;;;21.97;59.18
60258;BME280;46115;44.484;11.314;2023-09-08T22:22:20;100540.03;;;22.03;58.96
60258;BME280;46115;44.484;11.314;2023-09-08T22:26:23;100541.31;;;21.90;59.34
60258;BME280;46115;44.484;11.314;2023-09-08T22:30:25;100543.59;;;21.75;59.69
60258;BME280;46115;44.484;11.314;2023-09-08T22:34:28;100540.56;;;22.07;58.91
60258;BME280;46115;44.484;11.314;2023-09-08T22:38:32;100542.59;;;21.86;59.49
60258;BME280;46115;44.484;11.314;2023-09-08T22:42:35;100548.41;;;21.81;59.48
60258;BME280;46115;44.484;11.314;2023-09-08T22:46:37;100542.44;;;21.97;59.11
60258;BME280;46115;44.484;11.314;2023-09-08T22:50:40;100542.28;;;21.98;58.73
60258;BME280;46115;44.484;11.314;2023-09-08T22:54:44;100544.16;;;21.88;58.90
60258;BME280;46115;44.484;11.314;2023-09-08T22:58:46;100549.19;;;22.10;58.26
60258;BME280;46115;44.484;11.314;2023-09-08T23:02:48;100545.63;;;21.54;59.71
60258;BME280;46115;44.484;11.314;2023-09-08T23:06:51;100541.69;;;21.38;60.35
60258;BME280;46115;44.484;11.314;2023-09-08T23:10:55;100547.75;;;21.60;59.63
60258;BME280;46115;44.484;11.314;2023-09-08T23:14:57;100554.00;;;21.31;60.76
60258;BME280;46115;44.484;11.314;2023-09-08T23:19:00;100548.75;;;21.30;60.70
60258;BME280;46115;44.484;11.314;2023-09-08T23:23:02;100544.66;;;21.35;60.49
60258;BME280;46115;44.484;11.314;2023-09-08T23:27:06;100548.03;;;21.18;60.85
60258;BME280;46115;44.484;11.314;2023-09-08T23:31:09;100556.06;;;21.08;61.26
60258;BME280;46115;44.484;11.314;2023-09-08T23:35:12;100550.97;;;21.15;61.23
60258;BME280;46115;44.484;11.314;2023-09-08T23:39:14;100549.41;;;20.83;62.11
60258;BME280;46115;44.484;11.314;2023-09-08T23:43:18;100536.50;;;20.68;62.82
60258;BME280;46115;44.484;11.314;2023-09-08T23:47:20;100541.44;;;20.72;62.77
60258;BME280;46115;44.484;11.314;2023-09-08T23:51:23;100533.13;;;20.75;62.69
60258;BME280;46115;44.484;11.314;2023-09-08T23:55:25;100538.38;;;20.86;62.03
60258;BME280;46115;44.484;11.314;2023-09-08T23:59:29;100530.13;;;20.69;62.78
